sensor_id;sensor_type;location;lat;lon;timestamp;temperature;humidity
45685;DHT22;46836;48.388;16.210;2023-01-15T00:02:16;6.30;99.90
45685;DHT22;46836;48.388;16.210;2023-01-15T00:04:44;6.30;99.90
45685;DHT22;46836;48.388;16.210;2023-01-15T00:07:11;6.30;99.90
45685;DHT22;46836;48.388;16.210;2023-01-15T00:09:38;6.30;99.90
45685;DHT22;46836;48.388;16.210;2023-01-15T00:12:05;6.30;99.90
45685;DHT22;46836;48.388;16.210;2023-01-15T00:14:32;6.20;99.90
45685;DHT22;46836;48.388;16.210;2023-01-15T00:16:59;6.20;99.90
45685;DHT22;46836;48.388;16.210;2023-01-15T00:19:26;6.20;99.90
45685;DHT22;46836;48.388;16.210;2023-01-15T00:21:53;6.20;99.90
45685;DHT22;46836;48.388;16.210;2023-01-15T00:24:20;6.20;99.90
45685;DHT22;46836;48.388;16.210;2023-01-15T00:27:09;6.20;99.90
45685;DHT22;46836;48.388;16.210;2023-01-15T00:29:59;6.20;99.90
45685;DHT22;46836;48.388;16.210;2023-01-15T00:32:26;6.20;99.90
45685;DHT22;46836;48.388;16.210;2023-01-15T00:34:57;6.20;99.90
45685;DHT22;46836;48.388;16.210;2023-01-15T00:37:25;6.20;99.90
45685;DHT22;46836;48.388;16.210;2023-01-15T00:39:52;6.20;99.90
45685;DHT22;46836;48.388;16.210;2023-01-15T00:42:19;6.30;99.90
45685;DHT22;46836;48.388;16.210;2023-01-15T00:44:46;6.30;99.90
45685;DHT22;46836;48.388;16.210;2023-01-15T00:47:13;6.30;99.90
45685;DHT22;46836;48.388;16.210;2023-01-15T00:49:41;6.20;99.90
45685;DHT22;46836;48.388;16.210;2023-01-15T00:52:09;6.30;99.90
45685;DHT22;46836;48.388;16.210;2023-01-15T00:54:36;6.30;99.90
45685;DHT22;46836;48.388;16.210;2023-01-15T00:57:03;6.30;99.90
45685;DHT22;46836;48.388;16.210;2023-01-15T00:59:30;6.30;99.90
45685;DHT22;46836;48.388;16.210;2023-01-15T01:01:57;6.30;99.90
45685;DHT22;46836;48.388;16.210;2023-01-15T01:04:25;6.30;99.90
45685;DHT22;46836;48.388;16.210;2023-01-15T01:06:52;6.30;99.90
45685;DHT22;46836;48.388;16.210;2023-01-15T01:09:19;6.30;99.90
45685;DHT22;46836;48.388;16.210;2023-01-15T01:11:48;6.30;99.90
45685;DHT22;46836;48.388;16.210;2023-01-15T01:14:15;6.30;99.90
45685;DHT22;46836;48.388;16.210;2023-01-15T01:16:42;6.30;99.90
45685;DHT22;46836;48.388;16.210;2023-01-15T01:19:15;6.30;99.90
45685;DHT22;46836;48.388;16.210;2023-01-15T01:21:44;6.40;99.90
45685;DHT22;46836;48.388;16.210;2023-01-15T01:24:14;6.40;99.90
45685;DHT22;46836;48.388;16.210;2023-01-15T01:26:43;6.40;99.90
45685;DHT22;46836;48.388;16.210;2023-01-15T01:29:12;6.30;99.90
45685;DHT22;46836;48.388;16.210;2023-01-15T01:31:40;6.30;99.90
45685;DHT22;46836;48.388;16.210;2023-01-15T01:34:08;6.30;99.90
45685;DHT22;46836;48.388;16.210;2023-01-15T01:36:37;6.30;99.90
45685;DHT22;46836;48.388;16.210;2023-01-15T01:39:07;6.30;99.90
45685;DHT22;46836;48.388;16.210;2023-01-15T01:41:37;6.30;99.90
45685;DHT22;46836;48.388;16.210;2023-01-15T01:47:23;6.40;99.90
45685;DHT22;46836;48.388;16.210;2023-01-15T01:50:11;6.30;99.90
45685;DHT22;46836;48.388;16.210;2023-01-15T01:52:43;6.30;99.90
45685;DHT22;46836;48.388;16.210;2023-01-15T01:55:13;6.30;99.90
45685;DHT22;46836;48.388;16.210;2023-01-15T01:57:42;6.30;99.90
45685;DHT22;46836;48.388;16.210;2023-01-15T02:00:10;6.30;99.90
45685;DHT22;46836;48.388;16.210;2023-01-15T02:02:38;6.30;99.90
45685;DHT22;46836;48.388;16.210;2023-01-15T02:05:07;6.30;99.90
45685;DHT22;46836;48.388;16.210;2023-01-15T02:07:35;6.30;99.90
45685;DHT22;46836;48.388;16.210;2023-01-15T02:10:03;6.30;99.90
45685;DHT22;46836;48.388;16.210;2023-01-15T02:12:36;6.20;99.90
45685;DHT22;46836;48.388;16.210;2023-01-15T02:15:18;6.20;99.90
45685;DHT22;46836;48.388;16.210;2023-01-15T02:17:58;6.20;99.90
45685;DHT22;46836;48.388;16.210;2023-01-15T02:20:43;6.20;99.90
45685;DHT22;46836;48.388;16.210;2023-01-15T02:28:29;6.30;99.90
45685;DHT22;46836;48.388;16.210;2023-01-15T02:34:06;6.30;99.90
45685;DHT22;46836;48.388;16.210;2023-01-15T02:36:39;6.30;99.90
45685;DHT22;46836;48.388;16.210;2023-01-15T02:39:10;6.30;99.90
45685;DHT22;46836;48.388;16.210;2023-01-15T02:41:47;6.30;99.90
45685;DHT22;46836;48.388;16.210;2023-01-15T02:44:20;6.40;99.90
45685;DHT22;46836;48.388;16.210;2023-01-15T02:46:49;6.30;99.90
45685;DHT22;46836;48.388;16.210;2023-01-15T02:49:18;6.30;99.90
45685;DHT22;46836;48.388;16.210;2023-01-15T02:51:57;6.30;99.90
45685;DHT22;46836;48.388;16.210;2023-01-15T02:54:29;6.30;99.90
45685;DHT22;46836;48.388;16.210;2023-01-15T02:56:58;6.30;99.90
45685;DHT22;46836;48.388;16.210;2023-01-15T02:59:35;6.30;99.90
45685;DHT22;46836;48.388;16.210;2023-01-15T03:02:07;6.30;99.90
45685;DHT22;46836;48.388;16.210;2023-01-15T03:04:42;6.30;99.90
45685;DHT22;46836;48.388;16.210;2023-01-15T03:10:09;6.30;99.90
45685;DHT22;46836;48.388;16.210;2023-01-15T03:12:54;6.30;99.90
45685;DHT22;46836;48.388;16.210;2023-01-15T03:15:55;6.30;99.90
45685;DHT22;46836;48.388;16.210;2023-01-15T03:18:51;6.30;99.90
45685;DHT22;46836;48.388;16.210;2023-01-15T03:21:25;6.30;99.90
45685;DHT22;46836;48.388;16.210;2023-01-15T03:23:55;6.40;99.90
45685;DHT22;46836;48.388;16.210;2023-01-15T03:26:23;6.40;99.90
45685;DHT22;46836;48.388;16.210;2023-01-15T03:28:50;6.40;99.90
45685;DHT22;46836;48.388;16.210;2023-01-15T03:31:18;6.40;99.90
45685;DHT22;46836;48.388;16.210;2023-01-15T03:33:45;6.40;99.90
45685;DHT22;46836;48.388;16.210;2023-01-15T03:36:12;6.40;99.90
45685;DHT22;46836;48.388;16.210;2023-01-15T03:38:40;6.50;99.90
45685;DHT22;46836;48.388;16.210;2023-01-15T03:41:29;6.50;99.90
45685;DHT22;46836;48.388;16.210;2023-01-15T03:58:02;6.50;99.90
45685;DHT22;46836;48.388;16.210;2023-01-15T04:00:39;6.50;99.90
45685;DHT22;46836;48.388;16.210;2023-01-15T04:03:09;6.50;99.90
45685;DHT22;46836;48.388;16.210;2023-01-15T04:05:39;6.50;99.90
45685;DHT22;46836;48.388;16.210;2023-01-15T04:08:08;6.50;99.90
45685;DHT22;46836;48.388;16.210;2023-01-15T04:10:35;6.40;99.90
45685;DHT22;46836;48.388;16.210;2023-01-15T04:13:03;6.40;99.90
45685;DHT22;46836;48.388;16.210;2023-01-15T04:15:31;6.40;99.90
45685;DHT22;46836;48.388;16.210;2023-01-15T04:17:58;6.40;99.90
45685;DHT22;46836;48.388;16.210;2023-01-15T04:20:25;6.40;99.90
45685;DHT22;46836;48.388;16.210;2023-01-15T04:22:52;6.30;99.90
45685;DHT22;46836;48.388;16.210;2023-01-15T04:25:20;6.30;99.90
45685;DHT22;46836;48.388;16.210;2023-01-15T04:27:47;6.30;99.90
45685;DHT22;46836;48.388;16.210;2023-01-15T04:30:14;6.30;99.90
45685;DHT22;46836;48.388;16.210;2023-01-15T04:32:43;6.20;99.90
45685;DHT22;46836;48.388;16.210;2023-01-15T04:35:10;6.20;99.90
45685;DHT22;46836;48.388;16.210;2023-01-15T04:37:37;6.20;99.90
45685;DHT22;46836;48.388;16.210;2023-01-15T04:40:05;6.20;99.90
45685;DHT22;46836;48.388;16.210;2023-01-15T04:42:32;6.20;99.90
45685;DHT22;46836;48.388;16.210;2023-01-15T04:45:18;6.30;99.90
45685;DHT22;46836;48.388;16.210;2023-01-15T04:47:45;6.30;99.90
45685;DHT22;46836;48.388;16.210;2023-01-15T04:50:12;6.30;99.90
45685;DHT22;46836;48.388;16.210;2023-01-15T04:52:39;6.30;99.90
45685;DHT22;46836;48.388;16.210;2023-01-15T04:55:06;6.30;99.90
45685;DHT22;46836;48.388;16.210;2023-01-15T04:57:33;6.30;99.90
45685;DHT22;46836;48.388;16.210;2023-01-15T05:00:03;6.30;99.90
45685;DHT22;46836;48.388;16.210;2023-01-15T05:02:30;6.30;99.90
45685;DHT22;46836;48.388;16.210;2023-01-15T05:04:57;6.30;99.90
45685;DHT22;46836;48.388;16.210;2023-01-15T05:07:24;6.30;99.90
45685;DHT22;46836;48.388;16.210;2023-01-15T05:09:51;6.30;99.90
45685;DHT22;46836;48.388;16.210;2023-01-15T05:12:20;6.30;99.90
45685;DHT22;46836;48.388;16.210;2023-01-15T05:14:47;6.30;99.90
45685;DHT22;46836;48.388;16.210;2023-01-15T05:17:14;6.30;99.90
45685;DHT22;46836;48.388;16.210;2023-01-15T05:19:41;6.30;99.90
45685;DHT22;46836;48.388;16.210;2023-01-15T05:22:08;6.30;99.90
45685;DHT22;46836;48.388;16.210;2023-01-15T05:24:36;6.30;99.90
45685;DHT22;46836;48.388;16.210;2023-01-15T05:27:03;6.30;99.90
45685;DHT22;46836;48.388;16.210;2023-01-15T05:29:31;6.30;99.90
45685;DHT22;46836;48.388;16.210;2023-01-15T05:31:58;6.30;99.90
45685;DHT22;46836;48.388;16.210;2023-01-15T05:34:26;6.30;99.90
45685;DHT22;46836;48.388;16.210;2023-01-15T05:36:53;6.30;99.90
45685;DHT22;46836;48.388;16.210;2023-01-15T05:39:20;6.30;99.90
45685;DHT22;46836;48.388;16.210;2023-01-15T05:41:47;6.40;99.90
45685;DHT22;46836;48.388;16.210;2023-01-15T05:46:47;6.40;99.90
45685;DHT22;46836;48.388;16.210;2023-01-15T05:49:17;6.40;99.90
45685;DHT22;46836;48.388;16.210;2023-01-15T05:51:47;6.40;99.90
45685;DHT22;46836;48.388;16.210;2023-01-15T05:54:18;6.30;99.90
45685;DHT22;46836;48.388;16.210;2023-01-15T05:56:46;6.30;99.90
45685;DHT22;46836;48.388;16.210;2023-01-15T05:59:17;6.40;99.90
45685;DHT22;46836;48.388;16.210;2023-01-15T06:01:44;6.40;99.90
45685;DHT22;46836;48.388;16.210;2023-01-15T06:04:13;6.40;99.90
45685;DHT22;46836;48.388;16.210;2023-01-15T06:06:41;6.40;99.90
45685;DHT22;46836;48.388;16.210;2023-01-15T06:09:09;6.40;99.90
45685;DHT22;46836;48.388;16.210;2023-01-15T06:11:36;6.40;99.90
45685;DHT22;46836;48.388;16.210;2023-01-15T06:14:03;6.40;99.90
45685;DHT22;46836;48.388;16.210;2023-01-15T06:16:31;6.40;99.90
45685;DHT22;46836;48.388;16.210;2023-01-15T06:19:02;6.40;99.90
45685;DHT22;46836;48.388;16.210;2023-01-15T06:21:31;6.50;99.90
45685;DHT22;46836;48.388;16.210;2023-01-15T06:23:59;6.50;99.90
45685;DHT22;46836;48.388;16.210;2023-01-15T06:26:26;6.50;99.90
45685;DHT22;46836;48.388;16.210;2023-01-15T06:28:53;6.50;99.90
45685;DHT22;46836;48.388;16.210;2023-01-15T06:31:22;6.50;99.90
45685;DHT22;46836;48.388;16.210;2023-01-15T06:33:49;6.40;99.90
45685;DHT22;46836;48.388;16.210;2023-01-15T06:36:19;6.50;99.90
45685;DHT22;46836;48.388;16.210;2023-01-15T06:38:50;6.50;99.90
45685;DHT22;46836;48.388;16.210;2023-01-15T06:41:19;6.50;99.90
45685;DHT22;46836;48.388;16.210;2023-01-15T06:44:07;6.50;99.90
45685;DHT22;46836;48.388;16.210;2023-01-15T06:46:55;6.50;99.90
45685;DHT22;46836;48.388;16.210;2023-01-15T06:49:41;6.50;99.90
45685;DHT22;46836;48.388;16.210;2023-01-15T06:52:08;6.50;99.90
45685;DHT22;46836;48.388;16.210;2023-01-15T06:54:35;6.50;99.90
45685;DHT22;46836;48.388;16.210;2023-01-15T06:57:02;6.50;99.90
45685;DHT22;46836;48.388;16.210;2023-01-15T06:59:30;6.50;99.90
45685;DHT22;46836;48.388;16.210;2023-01-15T07:01:57;6.50;99.90
45685;DHT22;46836;48.388;16.210;2023-01-15T07:04:24;6.50;99.90
45685;DHT22;46836;48.388;16.210;2023-01-15T07:06:51;6.50;99.90
45685;DHT22;46836;48.388;16.210;2023-01-15T07:09:18;6.40;99.90
45685;DHT22;46836;48.388;16.210;2023-01-15T07:11:45;6.40;99.90
45685;DHT22;46836;48.388;16.210;2023-01-15T07:14:17;6.40;99.90
45685;DHT22;46836;48.388;16.210;2023-01-15T07:16:44;6.30;99.90
45685;DHT22;46836;48.388;16.210;2023-01-15T07:19:12;6.30;99.90
45685;DHT22;46836;48.388;16.210;2023-01-15T07:21:40;6.30;99.90
45685;DHT22;46836;48.388;16.210;2023-01-15T07:24:08;6.20;99.90
45685;DHT22;46836;48.388;16.210;2023-01-15T07:26:36;6.20;99.90
45685;DHT22;46836;48.388;16.210;2023-01-15T07:29:04;6.20;99.90
45685;DHT22;46836;48.388;16.210;2023-01-15T07:31:32;6.10;99.90
45685;DHT22;46836;48.388;16.210;2023-01-15T07:33:59;6.10;99.90
45685;DHT22;46836;48.388;16.210;2023-01-15T07:36:26;6.10;99.90
45685;DHT22;46836;48.388;16.210;2023-01-15T07:38:54;6.10;99.90
45685;DHT22;46836;48.388;16.210;2023-01-15T07:41:21;6.10;99.90
45685;DHT22;46836;48.388;16.210;2023-01-15T07:44:09;6.00;99.90
45685;DHT22;46836;48.388;16.210;2023-01-15T07:46:55;6.00;99.90
45685;DHT22;46836;48.388;16.210;2023-01-15T07:49:42;6.00;99.90
45685;DHT22;46836;48.388;16.210;2023-01-15T07:52:18;5.90;99.90
45685;DHT22;46836;48.388;16.210;2023-01-15T07:54:47;5.90;99.90
45685;DHT22;46836;48.388;16.210;2023-01-15T07:57:19;5.90;99.90
45685;DHT22;46836;48.388;16.210;2023-01-15T07:59:47;5.90;99.90
45685;DHT22;46836;48.388;16.210;2023-01-15T08:02:15;5.90;99.90
45685;DHT22;46836;48.388;16.210;2023-01-15T08:04:42;5.90;99.90
45685;DHT22;46836;48.388;16.210;2023-01-15T08:07:09;5.90;99.90
45685;DHT22;46836;48.388;16.210;2023-01-15T08:09:36;5.90;99.90
45685;DHT22;46836;48.388;16.210;2023-01-15T08:12:04;6.00;99.90
45685;DHT22;46836;48.388;16.210;2023-01-15T08:14:50;6.00;99.90
45685;DHT22;46836;48.388;16.210;2023-01-15T08:17:36;6.00;99.90
45685;DHT22;46836;48.388;16.210;2023-01-15T08:20:06;6.10;99.90
45685;DHT22;46836;48.388;16.210;2023-01-15T08:22:34;6.10;99.90
45685;DHT22;46836;48.388;16.210;2023-01-15T08:25:01;6.10;99.90
45685;DHT22;46836;48.388;16.210;2023-01-15T08:27:28;6.10;99.90
45685;DHT22;46836;48.388;16.210;2023-01-15T08:29:59;6.10;99.90
45685;DHT22;46836;48.388;16.210;2023-01-15T08:32:26;6.00;99.90
45685;DHT22;46836;48.388;16.210;2023-01-15T08:34:53;6.00;99.90
45685;DHT22;46836;48.388;16.210;2023-01-15T08:37:20;6.00;99.90
45685;DHT22;46836;48.388;16.210;2023-01-15T08:39:50;6.00;99.90
45685;DHT22;46836;48.388;16.210;2023-01-15T08:42:20;6.00;99.90
45685;DHT22;46836;48.388;16.210;2023-01-15T08:44:47;6.10;99.90
45685;DHT22;46836;48.388;16.210;2023-01-15T08:47:16;6.10;99.90
45685;DHT22;46836;48.388;16.210;2023-01-15T08:49:44;6.00;99.90
45685;DHT22;46836;48.388;16.210;2023-01-15T08:52:12;6.00;99.90
45685;DHT22;46836;48.388;16.210;2023-01-15T08:54:39;6.00;99.90
45685;DHT22;46836;48.388;16.210;2023-01-15T08:57:08;6.00;99.90
45685;DHT22;46836;48.388;16.210;2023-01-15T08:59:37;5.90;99.90
45685;DHT22;46836;48.388;16.210;2023-01-15T09:02:04;5.90;99.90
45685;DHT22;46836;48.388;16.210;2023-01-15T09:04:32;5.90;99.90
45685;DHT22;46836;48.388;16.210;2023-01-15T09:06:59;6.00;99.90
45685;DHT22;46836;48.388;16.210;2023-01-15T09:09:26;6.00;99.90
45685;DHT22;46836;48.388;16.210;2023-01-15T09:11:53;6.00;99.90
45685;DHT22;46836;48.388;16.210;2023-01-15T09:14:20;6.10;99.90
45685;DHT22;46836;48.388;16.210;2023-01-15T09:17:07;6.10;99.90
45685;DHT22;46836;48.388;16.210;2023-01-15T09:19:34;6.10;99.90
45685;DHT22;46836;48.388;16.210;2023-01-15T09:22:01;6.10;99.90
45685;DHT22;46836;48.388;16.210;2023-01-15T09:24:28;6.10;99.90
45685;DHT22;46836;48.388;16.210;2023-01-15T09:26:55;6.20;99.90
45685;DHT22;46836;48.388;16.210;2023-01-15T09:29:22;6.20;99.90
45685;DHT22;46836;48.388;16.210;2023-01-15T09:31:49;6.20;99.90
45685;DHT22;46836;48.388;16.210;2023-01-15T09:34:16;6.20;99.90
45685;DHT22;46836;48.388;16.210;2023-01-15T09:36:43;6.20;99.90
45685;DHT22;46836;48.388;16.210;2023-01-15T09:39:12;6.20;99.90
45685;DHT22;46836;48.388;16.210;2023-01-15T09:44:56;6.20;99.90
45685;DHT22;46836;48.388;16.210;2023-01-15T09:56:22;6.30;99.90
45685;DHT22;46836;48.388;16.210;2023-01-15T09:58:52;6.30;99.90
45685;DHT22;46836;48.388;16.210;2023-01-15T10:01:25;6.30;99.90
45685;DHT22;46836;48.388;16.210;2023-01-15T10:04:46;6.40;99.90
45685;DHT22;46836;48.388;16.210;2023-01-15T10:09:38;6.30;99.90
45685;DHT22;46836;48.388;16.210;2023-01-15T10:12:15;6.30;99.90
45685;DHT22;46836;48.388;16.210;2023-01-15T10:17:42;6.30;99.90
45685;DHT22;46836;48.388;16.210;2023-01-15T10:25:49;6.30;99.90
45685;DHT22;46836;48.388;16.210;2023-01-15T10:28:39;6.40;99.90
45685;DHT22;46836;48.388;16.210;2023-01-15T10:31:19;6.40;99.90
45685;DHT22;46836;48.388;16.210;2023-01-15T10:34:02;6.40;99.90
45685;DHT22;46836;48.388;16.210;2023-01-15T10:36:41;6.40;99.90
45685;DHT22;46836;48.388;16.210;2023-01-15T10:42:14;6.30;99.90
45685;DHT22;46836;48.388;16.210;2023-01-15T10:48:13;6.30;99.90
45685;DHT22;46836;48.388;16.210;2023-01-15T10:50:41;6.20;99.90
45685;DHT22;46836;48.388;16.210;2023-01-15T10:56:42;6.20;99.90
45685;DHT22;46836;48.388;16.210;2023-01-15T10:58:51;6.20;99.90
45685;DHT22;46836;48.388;16.210;2023-01-15T11:01:23;6.20;99.90
45685;DHT22;46836;48.388;16.210;2023-01-15T11:03:53;6.10;99.90
45685;DHT22;46836;48.388;16.210;2023-01-15T11:06:22;6.10;99.90
45685;DHT22;46836;48.388;16.210;2023-01-15T11:08:54;6.10;99.90
45685;DHT22;46836;48.388;16.210;2023-01-15T11:12:04;6.00;99.90
45685;DHT22;46836;48.388;16.210;2023-01-15T11:14:40;6.10;99.90
45685;DHT22;46836;48.388;16.210;2023-01-15T11:17:41;6.00;99.90
45685;DHT22;46836;48.388;16.210;2023-01-15T11:20:33;6.00;99.90
45685;DHT22;46836;48.388;16.210;2023-01-15T11:23:13;6.00;99.90
45685;DHT22;46836;48.388;16.210;2023-01-15T11:26:07;6.00;99.90
45685;DHT22;46836;48.388;16.210;2023-01-15T11:28:38;6.00;99.90
45685;DHT22;46836;48.388;16.210;2023-01-15T11:31:07;6.00;99.90
45685;DHT22;46836;48.388;16.210;2023-01-15T11:33:34;6.00;99.90
45685;DHT22;46836;48.388;16.210;2023-01-15T11:36:17;6.00;99.90
45685;DHT22;46836;48.388;16.210;2023-01-15T11:38:47;6.00;99.90
45685;DHT22;46836;48.388;16.210;2023-01-15T11:43:58;6.00;99.90
45685;DHT22;46836;48.388;16.210;2023-01-15T11:46:46;6.00;99.90
45685;DHT22;46836;48.388;16.210;2023-01-15T11:49:31;5.90;99.90
45685;DHT22;46836;48.388;16.210;2023-01-15T11:52:22;5.90;99.90
45685;DHT22;46836;48.388;16.210;2023-01-15T11:54:53;5.90;99.90
45685;DHT22;46836;48.388;16.210;2023-01-15T11:57:25;6.00;99.90
45685;DHT22;46836;48.388;16.210;2023-01-15T11:59:53;6.00;99.90
45685;DHT22;46836;48.388;16.210;2023-01-15T12:02:41;5.90;99.90
45685;DHT22;46836;48.388;16.210;2023-01-15T12:05:20;6.00;99.90
45685;DHT22;46836;48.388;16.210;2023-01-15T12:07:51;6.00;99.90
45685;DHT22;46836;48.388;16.210;2023-01-15T12:11:00;6.00;99.90
45685;DHT22;46836;48.388;16.210;2023-01-15T12:13:55;6.00;99.90
45685;DHT22;46836;48.388;16.210;2023-01-15T12:30:30;6.10;99.90
45685;DHT22;46836;48.388;16.210;2023-01-15T12:36:01;6.20;99.90
45685;DHT22;46836;48.388;16.210;2023-01-15T12:38:50;6.20;99.90
45685;DHT22;46836;48.388;16.210;2023-01-15T12:41:35;6.20;99.90
45685;DHT22;46836;48.388;16.210;2023-01-15T12:44:35;6.20;99.90
45685;DHT22;46836;48.388;16.210;2023-01-15T12:47:27;6.30;99.90
45685;DHT22;46836;48.388;16.210;2023-01-15T12:50:10;6.30;99.90
45685;DHT22;46836;48.388;16.210;2023-01-15T12:52:42;6.30;99.90
45685;DHT22;46836;48.388;16.210;2023-01-15T12:55:18;6.40;99.90
45685;DHT22;46836;48.388;16.210;2023-01-15T12:57:50;6.40;99.90
45685;DHT22;46836;48.388;16.210;2023-01-15T13:05:50;6.40;99.90
45685;DHT22;46836;48.388;16.210;2023-01-15T13:10:58;6.50;99.90
45685;DHT22;46836;48.388;16.210;2023-01-15T13:13:36;6.40;99.90
45685;DHT22;46836;48.388;16.210;2023-01-15T13:21:15;6.50;99.90
45685;DHT22;46836;48.388;16.210;2023-01-15T13:26:52;6.50;99.90
45685;DHT22;46836;48.388;16.210;2023-01-15T13:29:44;6.50;99.90
45685;DHT22;46836;48.388;16.210;2023-01-15T13:32:27;6.50;99.90
45685;DHT22;46836;48.388;16.210;2023-01-15T13:35:21;6.50;99.90
45685;DHT22;46836;48.388;16.210;2023-01-15T13:37:54;6.50;99.90
45685;DHT22;46836;48.388;16.210;2023-01-15T13:40:40;6.50;99.90
45685;DHT22;46836;48.388;16.210;2023-01-15T13:45:54;6.50;99.90
45685;DHT22;46836;48.388;16.210;2023-01-15T13:48:52;6.50;99.90
45685;DHT22;46836;48.388;16.210;2023-01-15T13:51:32;6.60;99.90
45685;DHT22;46836;48.388;16.210;2023-01-15T13:54:03;6.60;99.90
45685;DHT22;46836;48.388;16.210;2023-01-15T13:56:36;6.60;99.90
45685;DHT22;46836;48.388;16.210;2023-01-15T14:02:28;6.70;99.90
45685;DHT22;46836;48.388;16.210;2023-01-15T14:04:57;6.70;99.90
45685;DHT22;46836;48.388;16.210;2023-01-15T14:07:33;6.70;99.90
45685;DHT22;46836;48.388;16.210;2023-01-15T14:10:08;6.70;99.90
45685;DHT22;46836;48.388;16.210;2023-01-15T14:12:42;6.70;99.90
45685;DHT22;46836;48.388;16.210;2023-01-15T14:15:26;6.80;99.90
45685;DHT22;46836;48.388;16.210;2023-01-15T14:18:14;6.80;99.90
45685;DHT22;46836;48.388;16.210;2023-01-15T14:21:09;6.90;99.90
45685;DHT22;46836;48.388;16.210;2023-01-15T14:23:55;6.90;99.90
45685;DHT22;46836;48.388;16.210;2023-01-15T14:32:22;6.80;99.90
45685;DHT22;46836;48.388;16.210;2023-01-15T14:34:57;6.80;99.90
45685;DHT22;46836;48.388;16.210;2023-01-15T14:37:39;6.80;99.90
45685;DHT22;46836;48.388;16.210;2023-01-15T14:40:22;6.90;99.90
45685;DHT22;46836;48.388;16.210;2023-01-15T14:42:53;6.90;99.90
45685;DHT22;46836;48.388;16.210;2023-01-15T14:45:32;6.90;99.90
45685;DHT22;46836;48.388;16.210;2023-01-15T14:48:05;7.00;99.90
45685;DHT22;46836;48.388;16.210;2023-01-15T14:50:40;7.00;99.90
45685;DHT22;46836;48.388;16.210;2023-01-15T15:07:04;7.00;99.90
45685;DHT22;46836;48.388;16.210;2023-01-15T15:09:53;7.00;99.90
45685;DHT22;46836;48.388;16.210;2023-01-15T15:21:18;6.90;99.90
45685;DHT22;46836;48.388;16.210;2023-01-15T15:26:34;6.90;99.90
45685;DHT22;46836;48.388;16.210;2023-01-15T15:29:14;6.90;99.90
45685;DHT22;46836;48.388;16.210;2023-01-15T15:31:50;6.80;99.90
45685;DHT22;46836;48.388;16.210;2023-01-15T15:34:31;6.90;99.90
45685;DHT22;46836;48.388;16.210;2023-01-15T15:37:03;6.90;99.90
45685;DHT22;46836;48.388;16.210;2023-01-15T15:39:44;6.90;99.90
45685;DHT22;46836;48.388;16.210;2023-01-15T15:45:23;7.00;99.90
45685;DHT22;46836;48.388;16.210;2023-01-15T15:51:04;7.00;99.90
45685;DHT22;46836;48.388;16.210;2023-01-15T15:53:32;7.00;99.90
45685;DHT22;46836;48.388;16.210;2023-01-15T15:56:00;7.00;99.90
45685;DHT22;46836;48.388;16.210;2023-01-15T15:58:33;7.00;99.90
45685;DHT22;46836;48.388;16.210;2023-01-15T16:01:01;7.00;99.90
45685;DHT22;46836;48.388;16.210;2023-01-15T16:03:30;7.00;99.90
45685;DHT22;46836;48.388;16.210;2023-01-15T16:06:02;7.00;99.90
45685;DHT22;46836;48.388;16.210;2023-01-15T16:08:32;7.00;99.90
45685;DHT22;46836;48.388;16.210;2023-01-15T16:11:10;7.00;99.90
45685;DHT22;46836;48.388;16.210;2023-01-15T16:13:43;7.00;99.90
45685;DHT22;46836;48.388;16.210;2023-01-15T16:16:12;6.90;99.90
45685;DHT22;46836;48.388;16.210;2023-01-15T16:19:05;6.90;99.90
45685;DHT22;46836;48.388;16.210;2023-01-15T16:21:34;6.70;99.90
45685;DHT22;46836;48.388;16.210;2023-01-15T16:24:07;6.60;99.90
45685;DHT22;46836;48.388;16.210;2023-01-15T16:26:48;6.60;99.90
45685;DHT22;46836;48.388;16.210;2023-01-15T16:29:21;6.60;99.90
45685;DHT22;46836;48.388;16.210;2023-01-15T16:31:52;6.60;99.90
45685;DHT22;46836;48.388;16.210;2023-01-15T16:34:25;6.60;99.90
45685;DHT22;46836;48.388;16.210;2023-01-15T16:36:56;6.60;99.90
45685;DHT22;46836;48.388;16.210;2023-01-15T16:39:38;6.60;99.90
45685;DHT22;46836;48.388;16.210;2023-01-15T16:42:24;6.70;99.90
45685;DHT22;46836;48.388;16.210;2023-01-15T16:44:59;6.70;99.90
45685;DHT22;46836;48.388;16.210;2023-01-15T16:47:32;6.70;99.90
45685;DHT22;46836;48.388;16.210;2023-01-15T16:52:59;6.80;99.90
45685;DHT22;46836;48.388;16.210;2023-01-15T16:55:36;6.90;99.90
45685;DHT22;46836;48.388;16.210;2023-01-15T17:00:50;6.90;99.90
45685;DHT22;46836;48.388;16.210;2023-01-15T17:03:24;6.90;99.90
45685;DHT22;46836;48.388;16.210;2023-01-15T17:06:09;6.90;99.90
45685;DHT22;46836;48.388;16.210;2023-01-15T17:08:45;6.90;99.90
45685;DHT22;46836;48.388;16.210;2023-01-15T17:11:25;6.90;99.90
45685;DHT22;46836;48.388;16.210;2023-01-15T17:14:21;6.90;99.90
45685;DHT22;46836;48.388;16.210;2023-01-15T17:17:22;7.00;99.90
45685;DHT22;46836;48.388;16.210;2023-01-15T17:19:52;7.00;99.90
45685;DHT22;46836;48.388;16.210;2023-01-15T17:22:27;7.00;99.90
45685;DHT22;46836;48.388;16.210;2023-01-15T17:24:58;7.00;99.90
45685;DHT22;46836;48.388;16.210;2023-01-15T17:27:28;6.90;99.90
45685;DHT22;46836;48.388;16.210;2023-01-15T17:29:57;7.00;99.90
45685;DHT22;46836;48.388;16.210;2023-01-15T17:32:33;7.00;99.90
45685;DHT22;46836;48.388;16.210;2023-01-15T17:35:26;7.00;99.90
45685;DHT22;46836;48.388;16.210;2023-01-15T17:37:54;7.00;99.90
45685;DHT22;46836;48.388;16.210;2023-01-15T17:40:25;7.00;99.90
45685;DHT22;46836;48.388;16.210;2023-01-15T17:42:53;7.00;99.90
45685;DHT22;46836;48.388;16.210;2023-01-15T17:45:24;7.00;99.90
45685;DHT22;46836;48.388;16.210;2023-01-15T17:47:53;7.00;99.90
45685;DHT22;46836;48.388;16.210;2023-01-15T17:50:20;7.00;99.90
45685;DHT22;46836;48.388;16.210;2023-01-15T17:52:50;7.10;99.90
45685;DHT22;46836;48.388;16.210;2023-01-15T17:55:20;7.10;99.90
45685;DHT22;46836;48.388;16.210;2023-01-15T17:58:12;7.10;99.90
45685;DHT22;46836;48.388;16.210;2023-01-15T18:01:01;7.10;99.90
45685;DHT22;46836;48.388;16.210;2023-01-15T18:03:51;7.10;99.90
45685;DHT22;46836;48.388;16.210;2023-01-15T18:06:41;7.10;99.90
45685;DHT22;46836;48.388;16.210;2023-01-15T18:09:12;7.10;99.90
45685;DHT22;46836;48.388;16.210;2023-01-15T18:11:40;7.10;99.90
45685;DHT22;46836;48.388;16.210;2023-01-15T18:14:08;7.10;99.90
45685;DHT22;46836;48.388;16.210;2023-01-15T18:16:38;7.10;99.90
45685;DHT22;46836;48.388;16.210;2023-01-15T18:19:06;7.10;99.90
45685;DHT22;46836;48.388;16.210;2023-01-15T18:21:37;7.10;99.90
45685;DHT22;46836;48.388;16.210;2023-01-15T18:24:07;7.10;99.90
45685;DHT22;46836;48.388;16.210;2023-01-15T18:26:42;7.10;99.90
45685;DHT22;46836;48.388;16.210;2023-01-15T18:29:11;7.10;99.90
45685;DHT22;46836;48.388;16.210;2023-01-15T18:31:39;7.10;99.90
45685;DHT22;46836;48.388;16.210;2023-01-15T18:34:07;7.10;99.90
45685;DHT22;46836;48.388;16.210;2023-01-15T18:36:35;7.10;99.90